createdAt,value
2022-09-27T00:01:13.198Z,45.10
2022-09-27T00:03:43.566Z,42.00
2022-09-27T00:06:18.875Z,46.10
2022-09-27T00:08:46.718Z,29.80
2022-09-27T00:11:28.879Z,25.90
2022-09-27T00:13:58.903Z,22.30
2022-09-27T00:16:30.982Z,19.60
2022-09-27T00:19:00.839Z,20.40
2022-09-27T00:21:30.770Z,19.00
2022-09-27T00:23:59.652Z,17.80
2022-09-27T00:26:29.515Z,17.20
2022-09-27T00:28:58.277Z,17.60
2022-09-27T00:31:29.949Z,17.40
2022-09-27T00:34:00.742Z,18.90
2022-09-27T00:36:30.340Z,17.60
2022-09-27T00:39:00.197Z,17.70
2022-09-27T00:41:36.253Z,17.80
2022-09-27T00:44:25.930Z,18.40
2022-09-27T00:47:22.945Z,18.70
2022-09-27T00:49:57.584Z,18.40
2022-09-27T00:52:42.191Z,18.20
2022-09-27T00:55:16.103Z,18.10
2022-09-27T00:57:46.250Z,18.10
2022-09-27T01:00:15.476Z,17.90
2022-09-27T01:02:50.660Z,17.40
2022-09-27T01:05:22.064Z,16.40
2022-09-27T01:07:50.517Z,17.80
2022-09-27T01:10:19.889Z,17.20
2022-09-27T01:13:01.595Z,16.80
2022-09-27T01:15:43.533Z,16.70
2022-09-27T01:18:24.291Z,15.80
2022-09-27T01:21:10.653Z,15.70
2022-09-27T01:24:24.015Z,15.60
2022-09-27T01:27:22.315Z,14.50
2022-09-27T01:30:13.784Z,15.00
2022-09-27T01:32:55.044Z,14.20
2022-09-27T01:35:22.807Z,15.20
2022-09-27T01:37:54.916Z,16.20
2022-09-27T01:41:07.125Z,15.40
2022-09-27T01:44:20.866Z,15.50
2022-09-27T01:46:56.443Z,14.90
2022-09-27T01:49:56.909Z,14.10
2022-09-27T01:52:35.391Z,14.60
2022-09-27T01:55:08.134Z,15.20
2022-09-27T01:58:26.811Z,15.80
2022-09-27T02:00:58.365Z,15.60
2022-09-27T02:03:33.870Z,17.00
2022-09-27T02:06:45.727Z,16.60
2022-09-27T02:09:29.029Z,18.30
2022-09-27T02:12:13.329Z,16.90
2022-09-27T02:14:46.114Z,30.70
2022-09-27T02:17:23.588Z,48.10
2022-09-27T02:20:07.941Z,43.10
2022-09-27T02:22:50.532Z,41.40
2022-09-27T02:25:24.502Z,46.30
2022-09-27T02:28:13.939Z,33.20
2022-09-27T02:30:42.307Z,24.10
2022-09-27T02:33:28.263Z,24.00
2022-09-27T02:35:56.258Z,26.20
2022-09-27T02:38:24.800Z,21.30
2022-09-27T02:40:55.136Z,17.80
2022-09-27T02:43:27.678Z,17.00
2022-09-27T02:46:11.710Z,15.60
2022-09-27T02:49:05.896Z,15.70
2022-09-27T02:51:54.416Z,16.10
2022-09-27T02:54:37.345Z,15.80
2022-09-27T02:57:24.011Z,16.80
2022-09-27T03:00:21.656Z,17.00
2022-09-27T03:03:07.041Z,17.60
2022-09-27T03:06:05.537Z,18.80
2022-09-27T03:08:33.886Z,18.20
2022-09-27T03:11:01.982Z,18.70
2022-09-27T03:13:30.586Z,18.30
2022-09-27T03:16:01.562Z,18.40
2022-09-27T03:18:48.743Z,18.20
2022-09-27T03:21:35.341Z,18.60
2022-09-27T03:24:03.769Z,18.80
2022-09-27T03:26:32.115Z,16.40
2022-09-27T03:29:00.076Z,17.70
2022-09-27T03:31:28.684Z,22.30
2022-09-27T03:34:17.061Z,22.20
2022-09-27T03:36:45.550Z,21.70
2022-09-27T03:39:13.621Z,21.30
2022-09-27T03:41:41.821Z,19.40
2022-09-27T03:44:09.842Z,18.60
2022-09-27T03:46:37.699Z,17.70
2022-09-27T03:49:05.583Z,16.60
2022-09-27T03:51:33.400Z,16.20
2022-09-27T03:54:01.255Z,17.00
2022-09-27T03:56:29.534Z,17.60
2022-09-27T03:58:57.306Z,17.50
2022-09-27T04:01:27.114Z,17.80
2022-09-27T04:03:55.793Z,19.70
2022-09-27T04:06:31.362Z,19.70
2022-09-27T04:08:59.246Z,19.70
2022-09-27T04:11:35.368Z,17.30
2022-09-27T04:14:05.727Z,19.80
2022-09-27T04:16:37.042Z,20.00
2022-09-27T04:19:29.301Z,18.60
2022-09-27T04:22:10.995Z,20.00
2022-09-27T04:24:39.794Z,20.30
2022-09-27T04:27:25.015Z,18.20
2022-09-27T04:29:52.936Z,17.70
2022-09-27T04:32:45.081Z,23.60
2022-09-27T04:36:04.520Z,18.20
2022-09-27T04:38:35.184Z,17.50
2022-09-27T04:41:03.396Z,16.80
2022-09-27T04:43:34.548Z,16.20
2022-09-27T04:46:04.261Z,16.10
2022-09-27T04:48:32.365Z,14.60
2022-09-27T04:51:05.345Z,14.90
2022-09-27T04:53:33.901Z,14.90
2022-09-27T04:56:06.113Z,14.20
2022-09-27T04:58:35.359Z,14.60
2022-09-27T05:01:04.379Z,14.30
2022-09-27T05:03:47.758Z,13.40
2022-09-27T05:06:16.985Z,24.10
2022-09-27T05:08:45.844Z,23.20
2022-09-27T05:11:25.046Z,29.80
2022-09-27T05:17:10.191Z,55.60
2022-09-27T05:20:05.016Z,77.50
2022-09-27T05:22:40.501Z,19.40
2022-09-27T05:25:09.965Z,17.70
2022-09-27T05:27:38.561Z,13.70
2022-09-27T05:30:08.315Z,13.90
2022-09-27T05:32:44.245Z,13.70
2022-09-27T05:35:36.303Z,29.00
2022-09-27T05:38:04.486Z,32.20
2022-09-27T05:40:41.292Z,16.90
2022-09-27T05:43:10.476Z,102.70
2022-09-27T05:45:38.441Z,21.50
2022-09-27T05:48:08.416Z,16.90
2022-09-27T05:50:45.724Z,14.40
2022-09-27T05:53:13.891Z,13.60
2022-09-27T05:55:43.297Z,40.90
2022-09-27T05:58:13.839Z,15.00
2022-09-27T06:00:47.974Z,12.80
2022-09-27T06:03:40.198Z,13.50
2022-09-27T06:06:26.655Z,12.60
2022-09-27T06:08:57.727Z,13.10
2022-09-27T06:11:27.889Z,13.20
2022-09-27T06:13:55.924Z,14.70
2022-09-27T06:16:25.520Z,14.20
2022-09-27T06:18:54.142Z,14.00
2022-09-27T06:21:22.755Z,15.00
2022-09-27T06:23:58.565Z,14.20
2022-09-27T06:26:31.457Z,14.10
2022-09-27T06:29:15.122Z,15.70
2022-09-27T06:31:56.859Z,14.90
2022-09-27T06:34:37.789Z,15.10
2022-09-27T06:37:05.647Z,15.80
2022-09-27T06:39:34.511Z,15.10
2022-09-27T06:42:18.142Z,15.00
2022-09-27T06:45:18.157Z,15.60
2022-09-27T06:48:06.920Z,16.70
2022-09-27T06:50:49.288Z,15.00
2022-09-27T06:53:17.890Z,16.50
2022-09-27T06:55:46.085Z,15.40
2022-09-27T06:58:32.848Z,15.20
2022-09-27T07:04:26.889Z,14.60
2022-09-27T07:07:30.451Z,15.60
2022-09-27T07:09:59.035Z,14.90
2022-09-27T07:12:28.949Z,15.20
2022-09-27T07:14:57.183Z,15.80
2022-09-27T07:17:25.072Z,15.50
2022-09-27T07:19:55.430Z,15.60
2022-09-27T07:22:23.799Z,14.50
2022-09-27T07:25:00.824Z,14.50
2022-09-27T07:27:28.878Z,14.60
2022-09-27T07:29:56.923Z,14.40
2022-09-27T07:32:26.252Z,14.80
2022-09-27T07:34:54.814Z,14.70
2022-09-27T07:37:23.730Z,15.30
2022-09-27T07:39:51.566Z,13.80
2022-09-27T07:42:19.908Z,13.20
2022-09-27T07:44:52.318Z,13.50
2022-09-27T07:47:53.081Z,14.10
2022-09-27T07:50:40.074Z,14.10
2022-09-27T07:53:26.825Z,12.30
2022-09-27T07:56:05.200Z,11.30
2022-09-27T07:58:34.469Z,16.50
2022-09-27T08:01:06.111Z,13.90
2022-09-27T08:03:35.111Z,11.70
2022-09-27T08:06:04.653Z,11.10
2022-09-27T08:08:33.135Z,9.60
2022-09-27T08:11:16.204Z,11.00
2022-09-27T08:13:48.059Z,10.80
2022-09-27T08:16:16.027Z,9.70
2022-09-27T08:19:16.080Z,10.40
2022-09-27T08:21:58.763Z,10.40
2022-09-27T08:24:30.995Z,10.70
2022-09-27T08:27:21.902Z,10.10
2022-09-27T08:29:53.456Z,9.50
2022-09-27T08:32:23.444Z,9.60
2022-09-27T08:34:52.980Z,9.60
2022-09-27T08:37:22.895Z,9.80
2022-09-27T08:39:51.283Z,9.80
2022-09-27T08:42:50.446Z,9.40
2022-09-27T08:45:50.788Z,10.50
2022-09-27T08:48:27.612Z,8.50
2022-09-27T08:50:56.370Z,8.60
2022-09-27T08:53:36.379Z,9.40
2022-09-27T08:56:08.710Z,10.60
2022-09-27T08:58:53.200Z,8.30
2022-09-27T09:01:32.672Z,7.00
2022-09-27T09:04:11.617Z,6.80
2022-09-27T09:06:59.699Z,7.10
2022-09-27T09:09:36.725Z,6.70
2022-09-27T09:12:45.654Z,8.00
2022-09-27T09:15:32.053Z,7.50
2022-09-27T09:18:23.957Z,7.40
2022-09-27T09:21:17.585Z,7.10
2022-09-27T09:24:23.125Z,7.00
2022-09-27T09:27:04.847Z,8.30
2022-09-27T09:29:38.841Z,8.10
2022-09-27T09:32:28.878Z,8.00
2022-09-27T09:35:06.409Z,8.30
2022-09-27T09:37:41.482Z,8.80
2022-09-27T09:40:28.181Z,8.10
2022-09-27T09:43:15.415Z,8.50
2022-09-27T09:45:47.304Z,8.20
2022-09-27T09:48:39.879Z,8.10
2022-09-27T09:51:13.187Z,8.90
2022-09-27T09:53:52.341Z,8.20
2022-09-27T09:57:18.648Z,8.40
2022-09-27T09:59:54.482Z,8.50
2022-09-27T10:02:36.975Z,8.80
2022-09-27T10:05:16.733Z,10.00
2022-09-27T10:07:47.095Z,8.70
2022-09-27T10:10:17.687Z,9.00
2022-09-27T10:13:22.335Z,8.90
2022-09-27T10:16:04.495Z,10.40
2022-09-27T10:18:35.908Z,8.80
2022-09-27T10:21:16.332Z,8.70
2022-09-27T10:24:07.506Z,9.00
2022-09-27T10:27:00.943Z,8.90
2022-09-27T10:29:37.008Z,9.70
2022-09-27T10:32:22.554Z,8.50
2022-09-27T10:34:51.405Z,8.90
2022-09-27T10:37:24.605Z,9.40
2022-09-27T10:40:38.968Z,9.30
2022-09-27T10:43:29.301Z,9.50
2022-09-27T10:46:32.921Z,8.60
2022-09-27T10:49:26.917Z,24.20
2022-09-27T10:51:58.169Z,114.90
2022-09-27T10:54:30.373Z,89.50
2022-09-27T10:57:04.769Z,24.30
2022-09-27T10:59:36.953Z,14.20
2022-09-27T11:02:06.511Z,12.80
2022-09-27T11:04:41.162Z,9.40
2022-09-27T11:07:12.019Z,8.90
2022-09-27T11:09:55.245Z,9.10
2022-09-27T11:12:25.434Z,8.20
2022-09-27T11:15:06.866Z,7.90
2022-09-27T11:17:47.611Z,8.70
2022-09-27T11:20:39.431Z,8.00
2022-09-27T11:23:23.566Z,8.40
2022-09-27T11:26:10.971Z,7.80
2022-09-27T11:29:12.139Z,8.20
2022-09-27T11:32:12.979Z,7.70
2022-09-27T11:34:47.591Z,7.70
2022-09-27T11:37:24.613Z,7.80
2022-09-27T11:40:15.187Z,7.80
2022-09-27T11:42:58.492Z,8.00
2022-09-27T11:46:10.815Z,8.20
2022-09-27T11:49:01.770Z,7.90
2022-09-27T11:52:07.584Z,7.30
2022-09-27T11:55:01.515Z,8.00
2022-09-27T11:57:45.304Z,8.00
2022-09-27T12:00:21.005Z,7.80
2022-09-27T12:03:14.931Z,7.60
2022-09-27T12:06:02.427Z,8.20
2022-09-27T12:08:52.377Z,7.60
2022-09-27T12:11:26.675Z,8.40
2022-09-27T12:14:04.080Z,8.00
2022-09-27T12:16:32.979Z,8.40
2022-09-27T12:19:03.615Z,7.50
2022-09-27T12:21:47.999Z,8.20
2022-09-27T12:24:22.289Z,8.60
2022-09-27T12:27:09.833Z,8.50
2022-09-27T12:29:43.609Z,7.80
2022-09-27T12:32:26.692Z,8.00
2022-09-27T12:35:03.832Z,8.80
2022-09-27T12:37:38.011Z,8.50
2022-09-27T12:40:38.941Z,8.80
2022-09-27T12:43:17.760Z,9.80
2022-09-27T12:46:19.219Z,10.40
2022-09-27T12:49:00.641Z,8.50
2022-09-27T12:51:37.110Z,8.50
2022-09-27T12:54:13.548Z,8.10
2022-09-27T12:56:44.725Z,8.60
2022-09-27T12:59:44.836Z,7.90
2022-09-27T13:03:14.061Z,7.70
2022-09-27T13:05:50.438Z,8.70
2022-09-27T13:08:34.823Z,9.10
2022-09-27T13:11:23.605Z,7.90
2022-09-27T13:13:57.024Z,7.30
2022-09-27T13:16:25.996Z,6.90
2022-09-27T13:19:02.908Z,7.60
2022-09-27T13:21:50.159Z,8.00
2022-09-27T13:24:47.291Z,7.60
2022-09-27T13:27:30.156Z,7.80
2022-09-27T13:30:09.967Z,8.40
2022-09-27T13:32:41.051Z,10.50
2022-09-27T13:35:26.764Z,71.50
2022-09-27T13:38:00.607Z,54.70
2022-09-27T13:40:43.682Z,23.20
2022-09-27T13:43:31.430Z,35.80
2022-09-27T13:46:11.068Z,47.60
2022-09-27T13:48:57.263Z,80.60
2022-09-27T13:51:51.672Z,36.90
2022-09-27T13:54:42.114Z,19.20
2022-09-27T13:57:49.011Z,18.20
2022-09-27T14:00:24.712Z,16.20
2022-09-27T14:03:08.101Z,38.30
2022-09-27T14:05:44.185Z,24.70
2022-09-27T14:08:37.227Z,25.60
2022-09-27T14:11:13.906Z,19.30
2022-09-27T14:13:46.602Z,22.00
2022-09-27T14:16:16.706Z,25.40
2022-09-27T14:18:57.806Z,27.10
2022-09-27T14:21:43.432Z,15.60
2022-09-27T14:24:32.048Z,25.20
2022-09-27T14:29:42.563Z,40.70
2022-09-27T14:32:18.135Z,31.80
2022-09-27T14:35:32.555Z,26.10
2022-09-27T14:38:15.664Z,15.50
2022-09-27T14:41:04.102Z,28.20
2022-09-27T14:43:33.215Z,38.10
2022-09-27T14:46:09.594Z,17.20
2022-09-27T14:48:40.369Z,12.60
2022-09-27T14:51:14.440Z,11.60
2022-09-27T14:53:57.350Z,11.90
2022-09-27T14:56:28.666Z,12.60
2022-09-27T14:59:03.440Z,13.90
2022-09-27T15:01:31.319Z,13.20
2022-09-27T15:04:07.015Z,12.40
2022-09-27T15:09:10.399Z,15.70
2022-09-27T15:11:41.698Z,19.60
2022-09-27T15:14:16.478Z,20.00
2022-09-27T15:16:48.096Z,14.90
2022-09-27T15:19:22.605Z,17.40
2022-09-27T15:21:50.419Z,16.80
2022-09-27T15:24:44.176Z,19.20
2022-09-27T15:27:26.010Z,26.70
2022-09-27T15:29:56.618Z,25.40
2022-09-27T15:32:27.725Z,25.40
2022-09-27T15:34:57.184Z,16.40
2022-09-27T15:37:35.270Z,14.50
2022-09-27T15:40:16.503Z,11.00
2022-09-27T15:43:30.255Z,16.10
2022-09-27T15:46:03.159Z,24.50
2022-09-27T15:48:33.424Z,14.60
2022-09-27T15:51:03.209Z,24.70
2022-09-27T15:53:36.923Z,22.20
2022-09-27T15:56:06.841Z,21.20
2022-09-27T15:58:36.902Z,16.80
2022-09-27T16:01:08.460Z,16.00
2022-09-27T16:03:36.326Z,31.90
2022-09-27T16:06:04.858Z,18.20
2022-09-27T16:08:32.796Z,12.50
2022-09-27T16:11:03.420Z,11.90
2022-09-27T16:13:33.315Z,12.20
2022-09-27T16:16:03.451Z,12.20
2022-09-27T16:18:32.982Z,12.40
2022-09-27T16:21:00.775Z,11.70
2022-09-27T16:23:28.883Z,14.60
2022-09-27T16:25:56.848Z,14.40
2022-09-27T16:28:24.618Z,25.50
2022-09-27T16:30:52.786Z,60.90
2022-09-27T16:33:20.716Z,97.00
2022-09-27T16:35:50.305Z,43.40
2022-09-27T16:38:18.134Z,68.50
2022-09-27T16:40:45.940Z,16.10
2022-09-27T16:43:13.738Z,7.10
2022-09-27T16:45:41.557Z,4.70
2022-09-27T16:48:09.401Z,5.00
2022-09-27T16:50:56.085Z,12.50
2022-09-27T16:53:24.404Z,6.90
2022-09-27T16:55:52.458Z,6.50
2022-09-27T16:58:20.214Z,4.70
2022-09-27T17:00:47.957Z,131.70
2022-09-27T17:03:15.846Z,47.50
2022-09-27T17:05:43.589Z,14.40
2022-09-27T17:08:11.421Z,44.40
2022-09-27T17:10:45.305Z,7.90
2022-09-27T17:13:13.575Z,20.70
2022-09-27T17:15:42.105Z,8.20
2022-09-27T17:18:10.356Z,15.00
2022-09-27T17:20:38.098Z,6.60
2022-09-27T17:23:06.278Z,29.60
2022-09-27T17:25:34.650Z,38.60
2022-09-27T17:28:02.501Z,39.10
2022-09-27T17:30:31.219Z,32.50
2022-09-27T17:32:59.036Z,72.00
2022-09-27T17:35:26.796Z,74.40
2022-09-27T17:37:54.625Z,64.40
2022-09-27T17:40:22.497Z,63.10
2022-09-27T17:42:51.170Z,61.30
2022-09-27T17:45:18.994Z,66.20
2022-09-27T17:48:07.832Z,107.70
2022-09-27T17:50:37.675Z,77.10
2022-09-27T17:53:05.521Z,105.70
2022-09-27T17:55:33.371Z,110.60
2022-09-27T17:58:02.321Z,150.50
2022-09-27T18:00:30.627Z,175.20
2022-09-27T18:02:58.453Z,77.00
2022-09-27T18:05:26.371Z,43.00
2022-09-27T18:07:54.107Z,33.20
2022-09-27T18:10:21.938Z,32.70
2022-09-27T18:12:49.721Z,38.90
2022-09-27T18:15:20.049Z,34.90
2022-09-27T18:17:53.326Z,34.70
2022-09-27T18:20:23.770Z,37.00
2022-09-27T18:22:53.434Z,33.30
2022-09-27T18:25:21.182Z,97.40
2022-09-27T18:27:51.569Z,31.30
2022-09-27T18:30:19.354Z,20.70
2022-09-27T18:32:47.191Z,26.40
2022-09-27T18:35:15.769Z,28.90
2022-09-27T18:37:47.640Z,25.30
2022-09-27T18:40:27.866Z,21.60
2022-09-27T18:43:04.754Z,29.20
2022-09-27T18:45:38.211Z,44.30
2022-09-27T18:48:06.122Z,23.80
2022-09-27T18:50:37.573Z,28.90
2022-09-27T18:53:05.620Z,23.10
2022-09-27T18:55:38.634Z,26.50
2022-09-27T18:58:14.346Z,24.30
2022-09-27T19:00:44.730Z,149.40
2022-09-27T19:03:17.528Z,39.70
2022-09-27T19:05:54.088Z,20.80
2022-09-27T19:08:21.897Z,21.50
2022-09-27T19:10:49.887Z,19.20
2022-09-27T19:13:17.784Z,18.30
2022-09-27T19:15:57.442Z,62.30
2022-09-27T19:18:26.430Z,29.70
2022-09-27T19:20:55.320Z,14.20
2022-09-27T19:23:23.717Z,15.90
2022-09-27T19:25:51.981Z,35.70
2022-09-27T19:28:20.644Z,41.10
2022-09-27T19:30:48.373Z,48.90
2022-09-27T19:33:16.302Z,45.90
2022-09-27T19:35:44.149Z,26.60
2022-09-27T19:38:11.858Z,33.60
2022-09-27T19:40:40.090Z,34.60
2022-09-27T19:43:08.029Z,27.00
2022-09-27T19:45:37.407Z,18.50
2022-09-27T19:48:05.316Z,26.70
2022-09-27T19:50:33.146Z,32.00
2022-09-27T19:53:00.917Z,31.00
2022-09-27T19:55:29.707Z,20.40
2022-09-27T19:57:57.640Z,30.70
2022-09-27T20:00:25.882Z,36.20
2022-09-27T20:02:53.873Z,24.80
2022-09-27T20:05:21.682Z,32.00
2022-09-27T20:07:53.957Z,37.20
2022-09-27T20:10:21.733Z,24.20
2022-09-27T20:12:51.880Z,23.00
2022-09-27T20:15:20.295Z,18.80
2022-09-27T20:17:48.342Z,20.90
2022-09-27T20:20:16.117Z,15.80
2022-09-27T20:22:43.958Z,12.50
2022-09-27T20:25:11.702Z,16.60
2022-09-27T20:27:39.945Z,20.00
2022-09-27T20:30:08.618Z,15.20
2022-09-27T20:32:37.253Z,15.20
2022-09-27T20:35:05.540Z,13.80
2022-09-27T20:37:33.720Z,14.80
2022-09-27T20:40:02.018Z,14.30
2022-09-27T20:42:30.012Z,15.20
2022-09-27T20:44:57.783Z,15.10
2022-09-27T20:47:25.515Z,15.90
2022-09-27T20:49:53.255Z,18.50
2022-09-27T20:52:21.356Z,16.60
2022-09-27T20:54:49.094Z,18.40
2022-09-27T20:57:17.114Z,12.30
2022-09-27T20:59:44.883Z,13.90
2022-09-27T21:02:12.809Z,24.90
2022-09-27T21:04:41.118Z,24.60
2022-09-27T21:07:08.847Z,12.50
2022-09-27T21:09:38.687Z,11.60
2022-09-27T21:12:06.541Z,35.60
2022-09-27T21:14:34.319Z,27.40
2022-09-27T21:17:02.368Z,16.30
2022-09-27T21:19:30.781Z,13.10
2022-09-27T21:21:58.642Z,24.70
2022-09-27T21:24:26.591Z,25.60
2022-09-27T21:26:54.563Z,19.90
2022-09-27T21:29:22.436Z,16.00
2022-09-27T21:31:50.340Z,13.90
2022-09-27T21:34:18.197Z,22.00
2022-09-27T21:36:46.015Z,23.00
2022-09-27T21:39:15.572Z,29.00
2022-09-27T21:41:43.491Z,30.60
2022-09-27T21:44:11.769Z,22.60
2022-09-27T21:46:41.252Z,37.40
2022-09-27T21:49:09.237Z,23.20
2022-09-27T21:51:39.515Z,19.30
2022-09-27T21:54:10.904Z,30.50
2022-09-27T21:56:40.393Z,25.80
2022-09-27T21:59:12.117Z,28.10
2022-09-27T22:01:43.134Z,32.70
2022-09-27T22:04:13.016Z,30.80
2022-09-27T22:06:41.027Z,29.10
2022-09-27T22:09:14.116Z,40.80
2022-09-27T22:11:44.303Z,36.70
2022-09-27T22:14:13.047Z,33.00
2022-09-27T22:16:41.305Z,76.50
2022-09-27T22:19:11.770Z,52.20
2022-09-27T22:21:40.314Z,59.90
2022-09-27T22:24:13.366Z,20.50
2022-09-27T22:26:45.386Z,89.50
2022-09-27T22:29:13.176Z,73.30
2022-09-27T22:31:41.083Z,32.00
2022-09-27T22:34:17.113Z,98.90
2022-09-27T22:39:13.140Z,67.30
2022-09-27T22:41:41.205Z,18.80
2022-09-27T22:44:08.999Z,55.50
2022-09-27T22:46:36.823Z,88.30
2022-09-27T22:49:04.950Z,29.70
2022-09-27T22:51:33.152Z,104.30
2022-09-27T22:54:01.074Z,61.90
2022-09-27T22:56:28.838Z,99.50
2022-09-27T22:58:56.678Z,35.60
2022-09-27T23:01:25.041Z,55.10
2022-09-27T23:03:54.122Z,44.20
2022-09-27T23:06:23.021Z,24.70
2022-09-27T23:08:51.646Z,34.70
2022-09-27T23:11:22.171Z,16.30
2022-09-27T23:13:51.356Z,10.90
2022-09-27T23:16:24.805Z,9.40
2022-09-27T23:18:54.367Z,13.70
2022-09-27T23:21:26.033Z,10.40
2022-09-27T23:23:56.608Z,9.40
2022-09-27T23:26:26.312Z,17.40
2022-09-27T23:28:56.576Z,12.90
2022-09-27T23:31:25.181Z,10.10
2022-09-27T23:33:54.570Z,9.00
2022-09-27T23:36:27.260Z,9.60
2022-09-27T23:38:58.360Z,23.90
2022-09-27T23:41:26.634Z,37.40
2022-09-27T23:43:54.828Z,92.40
2022-09-27T23:46:23.035Z,52.30
2022-09-27T23:48:50.883Z,15.50
2022-09-27T23:51:18.691Z,14.30
2022-09-27T23:53:46.445Z,20.60
2022-09-27T23:56:16.806Z,32.90
2022-09-27T23:58:45.971Z,34.20
